Time;durP1;ratioP1;P1;durP2;ratioP2;P2;SDS_P1;SDS_P2;PMS_P1;PMS_P2;Temp;Humidity;BMP_temperature;BMP_pressure;BME280_temperature;BME280_humidity;BME280_pressure;Samples;Min_cycle;Max_cycle;Signal;HPM_P1;HPM_P2
2022/11/16 00:00:11;;;;;;;86.13;54.07;;;;;;;;;;4468511;32;20241;-86
2022/11/16 00:02:38;;;;;;;99.87;59.23;;;;;;;;;;4468205;32;20362;-86
2022/11/16 00:05:06;;;;;;;105.13;64.93;;;;;;;;;;4468234;32;20218;-86
2022/11/16 00:07:34;;;;;;;100.40;62.37;;;;;;;;;;4467161;32;20319;-86
2022/11/16 00:10:08;;;;;;;114.57;67.50;;;;;;;;;;4470743;32;20222;-86
2022/11/16 00:12:34;;;;;;;115.60;71.57;;;;;;;;;;4473455;32;20280;-86
2022/11/16 00:15:01;;;;;;;119.63;76.87;;;;;;;;;;4473888;32;20204;-86
2022/11/16 00:17:28;;;;;;;123.13;77.47;;;;;;;;;;4473382;32;20310;-86
2022/11/16 00:19:55;;;;;;;121.57;76.83;;;;;;;;;;4472248;32;20561;-85
2022/11/16 00:22:22;;;;;;;125.77;75.20;;;;;;;;;;4473293;32;20224;-87
2022/11/16 00:24:49;;;;;;;114.33;70.83;;;;;;;;;;4473485;32;20252;-86
2022/11/16 00:27:18;;;;;;;120.63;72.73;;;;;;;;;;4473494;32;20224;-86
2022/11/16 00:29:46;;;;;;;115.97;71.47;;;;;;;;;;4473522;32;20275;-86
2022/11/16 00:32:13;;;;;;;108.97;65.77;;;;;;;;;;4472320;32;20669;-86
2022/11/16 00:34:50;;;;;;;106.47;66.07;;;;;;;;;;4473249;32;20271;-86
2022/11/16 00:37:16;;;;;;;104.13;65.30;;;;;;;;;;4473442;32;20656;-86
2022/11/16 00:39:44;;;;;;;103.10;64.80;;;;;;;;;;4473653;32;20255;-86
2022/11/16 00:42:12;;;;;;;102.07;65.43;;;;;;;;;;4473142;32;20216;-86
2022/11/16 00:44:40;;;;;;;93.57;61.13;;;;;;;;;;4473641;32;20293;-86
2022/11/16 00:47:08;;;;;;;93.50;59.50;;;;;;;;;;4473168;32;20237;-86
2022/11/16 00:49:37;;;;;;;81.90;56.23;;;;;;;;;;4473392;32;20212;-86
2022/11/16 00:52:04;;;;;;;90.27;55.00;;;;;;;;;;4472982;32;20284;-86
2022/11/16 00:54:30;;;;;;;81.57;55.43;;;;;;;;;;4473006;32;20550;-86
2022/11/16 00:56:58;;;;;;;84.90;52.50;;;;;;;;;;4473089;32;20754;-86
2022/11/16 00:59:25;;;;;;;71.73;48.83;;;;;;;;;;4473316;32;20263;-86
2022/11/16 01:01:53;;;;;;;77.87;50.23;;;;;;;;;;4472801;32;20273;-86
2022/11/16 01:04:20;;;;;;;63.13;44.87;;;;;;;;;;4472577;32;20213;-86
2022/11/16 01:06:47;;;;;;;81.57;50.80;;;;;;;;;;4472930;32;20227;-88
2022/11/16 01:09:15;;;;;;;67.70;43.10;;;;;;;;;;4473022;32;20207;-86
2022/11/16 01:14:22;;;;;;;65.03;42.27;;;;;;;;;;4460214;32;20307;-86
2022/11/16 01:16:50;;;;;;;76.87;50.20;;;;;;;;;;4473238;32;20291;-86
2022/11/16 01:19:18;;;;;;;81.57;51.17;;;;;;;;;;4473204;32;20249;-86
2022/11/16 01:21:45;;;;;;;71.73;45.87;;;;;;;;;;4470158;32;20236;-86
2022/11/16 01:24:11;;;;;;;64.77;40.40;;;;;;;;;;4471041;32;20233;-87
2022/11/16 01:26:40;;;;;;;70.17;44.63;;;;;;;;;;4470715;32;20851;-87
2022/11/16 01:29:07;;;;;;;62.40;38.27;;;;;;;;;;4470971;32;20322;-85
2022/11/16 01:31:33;;;;;;;64.33;42.53;;;;;;;;;;4470290;32;20224;-85
2022/11/16 01:34:00;;;;;;;77.73;49.07;;;;;;;;;;4470356;32;20557;-85
2022/11/16 01:36:29;;;;;;;83.03;49.23;;;;;;;;;;4470220;32;20238;-87
2022/11/16 01:38:56;;;;;;;75.97;46.33;;;;;;;;;;4470544;32;20232;-85
2022/11/16 01:41:25;;;;;;;77.13;48.63;;;;;;;;;;4470151;32;20625;-85
2022/11/16 01:44:00;;;;;;;86.40;55.37;;;;;;;;;;4470158;32;20507;-85
2022/11/16 01:46:28;;;;;;;94.17;57.27;;;;;;;;;;4470450;32;20212;-85
2022/11/16 01:49:00;;;;;;;79.43;51.43;;;;;;;;;;4469917;32;20243;-85
2022/11/16 01:51:32;;;;;;;99.80;61.43;;;;;;;;;;4470436;32;20246;-85
2022/11/16 01:54:05;;;;;;;110.83;65.87;;;;;;;;;;4470485;32;20285;-85
2022/11/16 01:56:33;;;;;;;117.93;69.20;;;;;;;;;;4469953;32;20220;-85
2022/11/16 01:59:00;;;;;;;122.40;72.93;;;;;;;;;;4469872;32;20271;-88
2022/11/16 02:01:27;;;;;;;113.27;69.30;;;;;;;;;;4470091;32;20314;-87
2022/11/16 02:03:54;;;;;;;113.17;67.07;;;;;;;;;;4470121;32;20212;-85
2022/11/16 02:06:46;;;;;;;104.70;66.50;;;;;;;;;;4469940;32;20192;-85
2022/11/16 02:12:51;;;;;;;118.30;72.57;;;;;;;;;;4470215;32;20272;-86
2022/11/16 02:15:25;;;;;;;130.23;75.23;;;;;;;;;;4469787;32;20216;-86
2022/11/16 02:18:04;;;;;;;116.50;74.53;;;;;;;;;;4469877;32;20222;-86
2022/11/16 02:21:02;;;;;;;112.07;69.53;;;;;;;;;;4470128;32;20222;-86
2022/11/16 02:23:57;;;;;;;111.70;66.53;;;;;;;;;;4469559;32;20819;-86
2022/11/16 02:26:56;;;;;;;123.00;71.23;;;;;;;;;;4469474;32;20264;-86
2022/11/16 02:29:30;;;;;;;120.83;75.30;;;;;;;;;;4469827;32;20620;-86
2022/11/16 02:32:03;;;;;;;123.07;72.47;;;;;;;;;;4469578;32;20238;-86
2022/11/16 02:34:39;;;;;;;113.93;70.30;;;;;;;;;;4469600;32;20267;-86
2022/11/16 02:37:08;;;;;;;101.47;67.17;;;;;;;;;;4469623;32;20208;-86
2022/11/16 02:39:38;;;;;;;97.90;66.57;;;;;;;;;;4469286;32;20233;-86
2022/11/16 02:42:11;;;;;;;106.37;68.03;;;;;;;;;;4469436;32;20250;-86
2022/11/16 02:44:44;;;;;;;102.17;65.00;;;;;;;;;;4469476;32;20204;-86
2022/11/16 02:47:15;;;;;;;97.13;61.40;;;;;;;;;;4469683;32;20236;-86
2022/11/16 02:49:47;;;;;;;92.83;60.63;;;;;;;;;;4469671;32;20195;-86
2022/11/16 02:52:16;;;;;;;102.60;65.90;;;;;;;;;;4469147;32;20236;-86
2022/11/16 02:54:49;;;;;;;100.00;66.03;;;;;;;;;;4469147;32;20204;-86
2022/11/16 02:57:33;;;;;;;102.10;65.70;;;;;;;;;;4469056;32;20246;-86
2022/11/16 03:00:02;;;;;;;101.37;65.33;;;;;;;;;;4469628;32;20274;-86
2022/11/16 03:02:36;;;;;;;102.67;64.60;;;;;;;;;;4469703;32;20663;-86
2022/11/16 03:05:08;;;;;;;107.87;68.40;;;;;;;;;;4469610;32;20224;-86
2022/11/16 03:07:42;;;;;;;114.20;71.60;;;;;;;;;;4468999;32;20230;-86
2022/11/16 03:10:10;;;;;;;106.60;67.57;;;;;;;;;;4469905;32;20200;-86
2022/11/16 03:12:40;;;;;;;109.03;71.77;;;;;;;;;;4469447;32;20538;-85
2022/11/16 03:15:12;;;;;;;125.10;77.77;;;;;;;;;;4469594;32;20204;-86
2022/11/16 03:17:44;;;;;;;127.27;77.57;;;;;;;;;;4469940;32;20230;-86
2022/11/16 03:20:14;;;;;;;117.93;75.93;;;;;;;;;;4470830;32;20192;-85
2022/11/16 03:22:43;;;;;;;122.10;79.00;;;;;;;;;;4470328;32;20208;-86
2022/11/16 03:25:14;;;;;;;121.40;73.43;;;;;;;;;;4469274;32;20325;-86
2022/11/16 03:27:47;;;;;;;123.10;77.40;;;;;;;;;;4469835;32;20731;-86
2022/11/16 03:30:19;;;;;;;117.73;74.77;;;;;;;;;;4469284;32;20212;-86
2022/11/16 03:32:54;;;;;;;119.93;73.40;;;;;;;;;;4469540;32;20220;-86
2022/11/16 03:35:26;;;;;;;114.87;72.83;;;;;;;;;;4468574;32;20227;-86
2022/11/16 03:37:57;;;;;;;110.00;65.67;;;;;;;;;;4469081;32;20697;-86
2022/11/16 03:40:27;;;;;;;103.83;66.27;;;;;;;;;;4468355;32;20589;-86
2022/11/16 03:42:59;;;;;;;115.27;70.87;;;;;;;;;;4468659;32;20212;-86
2022/11/16 03:45:31;;;;;;;116.13;74.60;;;;;;;;;;4467459;32;20246;-86
2022/11/16 03:47:59;;;;;;;109.27;71.93;;;;;;;;;;4468898;32;20200;-86
2022/11/16 03:50:26;;;;;;;109.97;69.87;;;;;;;;;;4468213;32;20216;-86
2022/11/16 03:52:55;;;;;;;115.20;69.77;;;;;;;;;;4468259;32;20287;-86
2022/11/16 03:55:22;;;;;;;108.30;70.70;;;;;;;;;;4467978;32;20270;-86
2022/11/16 03:57:49;;;;;;;100.60;65.87;;;;;;;;;;4468293;32;20238;-86
2022/11/16 04:00:16;;;;;;;112.37;71.93;;;;;;;;;;4467087;32;20223;-86
2022/11/16 04:02:44;;;;;;;122.23;78.80;;;;;;;;;;4468299;32;20201;-86
2022/11/16 04:24:37;;;;;;;117.27;73.00;;;;;;;;;;4468075;32;20583;-86
2022/11/16 04:29:52;;;;;;;107.13;68.03;;;;;;;;;;4467993;32;20227;-86
2022/11/16 04:38:07;;;;;;;105.77;67.43;;;;;;;;;;4467798;32;20632;-86
2022/11/16 04:40:34;;;;;;;96.47;63.73;;;;;;;;;;4468446;32;20223;-85
2022/11/16 04:43:02;;;;;;;87.73;59.53;;;;;;;;;;4468040;32;20656;-86
2022/11/16 04:48:15;;;;;;;89.17;56.53;;;;;;;;;;4467999;32;20237;-86
2022/11/16 04:50:44;;;;;;;84.00;57.17;;;;;;;;;;4468296;32;20196;-86
2022/11/16 04:53:11;;;;;;;78.80;52.73;;;;;;;;;;4468120;32;20354;-86
2022/11/16 04:55:38;;;;;;;88.60;57.60;;;;;;;;;;4468398;32;20219;-86
2022/11/16 04:58:05;;;;;;;87.97;57.93;;;;;;;;;;4470677;32;20200;-86
2022/11/16 05:00:32;;;;;;;86.80;56.50;;;;;;;;;;4470796;32;20243;-86
2022/11/16 05:02:59;;;;;;;99.60;62.93;;;;;;;;;;4471361;32;20250;-86
2022/11/16 05:05:26;;;;;;;83.57;57.97;;;;;;;;;;4471001;32;20299;-86
2022/11/16 05:07:55;;;;;;;99.00;58.77;;;;;;;;;;4470708;32;20204;-86
2022/11/16 05:10:22;;;;;;;98.23;62.83;;;;;;;;;;4470683;32;20201;-86
2022/11/16 05:12:52;;;;;;;89.27;59.13;;;;;;;;;;4470618;32;20226;-86
2022/11/16 05:15:19;;;;;;;89.67;58.07;;;;;;;;;;4471133;32;20700;-86
2022/11/16 05:17:46;;;;;;;99.67;61.80;;;;;;;;;;4472561;32;20509;-86
2022/11/16 05:23:02;;;;;;;90.87;58.23;;;;;;;;;;4471739;32;20730;-86
2022/11/16 05:25:29;;;;;;;109.83;57.63;;;;;;;;;;4471099;32;20238;-86
2022/11/16 05:27:56;;;;;;;101.93;64.47;;;;;;;;;;4470015;32;20208;-86
2022/11/16 05:30:27;;;;;;;93.83;58.77;;;;;;;;;;4470425;32;20212;-86
2022/11/16 05:32:54;;;;;;;85.53;55.23;;;;;;;;;;4470480;32;20226;-86
2022/11/16 05:35:21;;;;;;;86.83;55.00;;;;;;;;;;4470390;32;20291;-88
2022/11/16 05:37:50;;;;;;;90.97;55.70;;;;;;;;;;4470151;32;20610;-87
2022/11/16 05:40:19;;;;;;;85.30;55.53;;;;;;;;;;4470610;32;20256;-87
2022/11/16 05:42:46;;;;;;;84.97;59.23;;;;;;;;;;4470712;32;20283;-86
2022/11/16 05:45:13;;;;;;;87.40;62.20;;;;;;;;;;4469938;32;20694;-86
2022/11/16 05:47:42;;;;;;;86.83;58.80;;;;;;;;;;4470033;32;20218;-86
2022/11/16 05:50:10;;;;;;;91.80;62.23;;;;;;;;;;4469745;32;20200;-86
2022/11/16 05:52:41;;;;;;;98.87;60.40;;;;;;;;;;4469927;32;20552;-86
2022/11/16 05:55:23;;;;;;;93.63;58.80;;;;;;;;;;4469405;32;20237;-86
2022/11/16 05:57:49;;;;;;;89.93;59.10;;;;;;;;;;4468084;32;20196;-86
2022/11/16 06:00:17;;;;;;;84.17;56.90;;;;;;;;;;4469041;32;20222;-86
2022/11/16 06:02:45;;;;;;;82.20;53.17;;;;;;;;;;4468324;32;20259;-86
2022/11/16 06:05:14;;;;;;;80.20;54.50;;;;;;;;;;4469029;32;20663;-86
2022/11/16 06:07:41;;;;;;;85.37;55.20;;;;;;;;;;4468835;32;20200;-86
2022/11/16 06:10:09;;;;;;;82.60;54.63;;;;;;;;;;4469292;32;20208;-86
2022/11/16 06:12:38;;;;;;;89.90;52.77;;;;;;;;;;4469409;32;20201;-86
2022/11/16 06:15:07;;;;;;;79.93;49.50;;;;;;;;;;4469555;32;20218;-86
2022/11/16 06:17:37;;;;;;;82.90;50.10;;;;;;;;;;4469450;32;20201;-86
2022/11/16 06:20:05;;;;;;;73.67;50.27;;;;;;;;;;4468381;32;20691;-86
2022/11/16 06:22:32;;;;;;;68.87;45.60;;;;;;;;;;4468710;32;20204;-86
2022/11/16 06:25:01;;;;;;;72.87;44.30;;;;;;;;;;4469020;32;20210;-85
2022/11/16 06:27:27;;;;;;;63.23;42.37;;;;;;;;;;4468991;32;20552;-86
2022/11/16 06:29:56;;;;;;;62.53;42.70;;;;;;;;;;4468693;32;20204;-86
2022/11/16 06:32:22;;;;;;;58.63;41.90;;;;;;;;;;4468461;32;20244;-86
2022/11/16 06:34:50;;;;;;;57.80;41.67;;;;;;;;;;4468308;32;20632;-85
2022/11/16 06:37:18;;;;;;;62.87;40.10;;;;;;;;;;4468403;32;20306;-86
2022/11/16 06:39:47;;;;;;;53.17;37.93;;;;;;;;;;4468243;32;20257;-86
2022/11/16 06:42:14;;;;;;;53.60;37.33;;;;;;;;;;4467592;32;20710;-85
2022/11/16 06:44:42;;;;;;;48.57;34.73;;;;;;;;;;4470361;32;20275;-86
2022/11/16 06:47:13;;;;;;;61.93;39.30;;;;;;;;;;4468315;32;20216;-87
2022/11/16 06:49:44;;;;;;;57.93;40.33;;;;;;;;;;4469778;32;20204;-86
2022/11/16 06:52:11;;;;;;;62.20;41.93;;;;;;;;;;4469051;32;20278;-86
2022/11/16 06:54:37;;;;;;;73.97;46.97;;;;;;;;;;4469261;32;20575;-86
2022/11/16 06:57:04;;;;;;;71.30;47.43;;;;;;;;;;4468492;32;20250;-85
2022/11/16 06:59:31;;;;;;;93.23;55.67;;;;;;;;;;4468600;32;20301;-86
2022/11/16 07:01:58;;;;;;;89.83;53.27;;;;;;;;;;4467694;32;20707;-86
2022/11/16 07:04:34;;;;;;;83.27;53.07;;;;;;;;;;4468462;32;20221;-85
2022/11/16 07:07:01;;;;;;;87.97;55.17;;;;;;;;;;4468245;32;20742;-85
2022/11/16 07:09:28;;;;;;;90.53;54.50;;;;;;;;;;4466947;32;20200;-86
2022/11/16 07:11:56;;;;;;;90.10;59.77;;;;;;;;;;4467766;32;20264;-85
2022/11/16 07:14:23;;;;;;;95.13;59.07;;;;;;;;;;4468118;32;20231;-85
2022/11/16 07:16:49;;;;;;;98.43;61.90;;;;;;;;;;4467801;32;20240;-86
2022/11/16 07:19:16;;;;;;;110.03;73.53;;;;;;;;;;4467719;32;20563;-86
2022/11/16 07:21:45;;;;;;;117.07;73.93;;;;;;;;;;4468151;32;20242;-85
2022/11/16 07:24:12;;;;;;;129.30;78.90;;;;;;;;;;4467621;32;20213;-86
2022/11/16 07:26:41;;;;;;;124.53;75.57;;;;;;;;;;4467837;32;20578;-86
2022/11/16 07:29:08;;;;;;;123.33;74.50;;;;;;;;;;4467976;32;20216;-86
2022/11/16 07:31:35;;;;;;;107.10;72.50;;;;;;;;;;4467901;32;20196;-86
2022/11/16 07:34:02;;;;;;;114.77;73.57;;;;;;;;;;4467799;32;20261;-88
2022/11/16 07:36:29;;;;;;;108.40;70.00;;;;;;;;;;4468174;32;20193;-85
2022/11/16 07:38:57;;;;;;;105.43;69.97;;;;;;;;;;4468011;32;20299;-88
2022/11/16 07:41:24;;;;;;;101.63;67.77;;;;;;;;;;4468257;32;20204;-88
2022/11/16 07:43:55;;;;;;;109.67;69.97;;;;;;;;;;4467911;32;20427;-89
2022/11/16 07:46:23;;;;;;;98.83;65.83;;;;;;;;;;4468417;32;20200;-86
2022/11/16 07:48:52;;;;;;;90.87;61.27;;;;;;;;;;4468117;32;20268;-87
2022/11/16 07:51:19;;;;;;;87.10;60.17;;;;;;;;;;4467090;32;20197;-87
2022/11/16 07:53:46;;;;;;;87.43;58.93;;;;;;;;;;4467314;32;20216;-87
2022/11/16 07:56:17;;;;;;;77.67;52.70;;;;;;;;;;4466912;32;20281;-86
2022/11/16 07:58:48;;;;;;;66.00;42.90;;;;;;;;;;4467960;32;20288;-88
2022/11/16 08:01:16;;;;;;;59.60;38.10;;;;;;;;;;4468120;32;20212;-86
2022/11/16 08:03:52;;;;;;;51.60;37.53;;;;;;;;;;4467913;32;20223;-86
2022/11/16 08:06:23;;;;;;;61.20;38.60;;;;;;;;;;4467897;32;20248;-87
2022/11/16 08:08:52;;;;;;;47.73;33.13;;;;;;;;;;4468122;32;20208;-86
2022/11/16 08:11:21;;;;;;;48.33;34.43;;;;;;;;;;4466563;32;20234;-86
2022/11/16 08:13:50;;;;;;;49.07;34.50;;;;;;;;;;4467894;32;20208;-87
2022/11/16 08:16:19;;;;;;;52.90;36.40;;;;;;;;;;4467069;32;20242;-87
2022/11/16 08:18:51;;;;;;;59.53;35.03;;;;;;;;;;4467590;32;20214;-86
2022/11/16 08:21:19;;;;;;;46.33;33.20;;;;;;;;;;4468310;32;20568;-88
2022/11/16 08:23:48;;;;;;;44.23;31.37;;;;;;;;;;4467986;32;20223;-86
2022/11/16 08:26:18;;;;;;;47.70;32.73;;;;;;;;;;4467640;32;20209;-88
2022/11/16 08:28:52;;;;;;;52.43;32.67;;;;;;;;;;4467375;32;20196;-86
2022/11/16 08:31:22;;;;;;;55.90;37.07;;;;;;;;;;4469431;32;20224;-88
2022/11/16 08:33:50;;;;;;;55.27;36.17;;;;;;;;;;4470010;32;20676;-88
2022/11/16 08:36:19;;;;;;;46.37;34.23;;;;;;;;;;4470245;32;20249;-86
2022/11/16 08:38:48;;;;;;;46.93;32.70;;;;;;;;;;4470002;32;20228;-85
2022/11/16 08:41:15;;;;;;;52.80;37.23;;;;;;;;;;4470635;32;20273;-86
2022/11/16 08:43:45;;;;;;;56.67;38.97;;;;;;;;;;4470520;32;20287;-85
2022/11/16 08:46:14;;;;;;;44.97;31.73;;;;;;;;;;4471763;32;20684;-86
2022/11/16 08:48:41;;;;;;;41.23;26.60;;;;;;;;;;4469165;32;20297;-86
2022/11/16 08:51:14;;;;;;;41.47;28.67;;;;;;;;;;4470297;32;20542;-86
2022/11/16 08:53:41;;;;;;;39.03;24.53;;;;;;;;;;4470258;32;20219;-88
2022/11/16 08:56:12;;;;;;;36.10;25.43;;;;;;;;;;4471021;32;20216;-86
2022/11/16 08:58:43;;;;;;;32.30;25.23;;;;;;;;;;4471600;32;20239;-87
2022/11/16 09:01:11;;;;;;;35.27;24.57;;;;;;;;;;4470372;32;20333;-87
2022/11/16 09:03:41;;;;;;;34.90;23.10;;;;;;;;;;4470289;32;20208;-86
2022/11/16 09:06:11;;;;;;;32.10;24.50;;;;;;;;;;4470546;32;20578;-87
2022/11/16 09:08:40;;;;;;;52.93;34.07;;;;;;;;;;4470543;32;20709;-86
2022/11/16 09:11:10;;;;;;;39.90;27.63;;;;;;;;;;4470736;32;20292;-86
2022/11/16 09:13:37;;;;;;;50.10;33.07;;;;;;;;;;4470468;32;20278;-85
2022/11/16 09:16:04;;;;;;;38.00;24.10;;;;;;;;;;4470012;32;20226;-86
2022/11/16 09:18:31;;;;;;;36.77;25.40;;;;;;;;;;4469972;32;20301;-88
2022/11/16 09:21:02;;;;;;;28.37;20.43;;;;;;;;;;4469898;32;20224;-86
2022/11/16 09:23:30;;;;;;;32.03;20.63;;;;;;;;;;4470456;32;20200;-86
2022/11/16 09:26:02;;;;;;;37.67;25.37;;;;;;;;;;4469171;32;20261;-86
2022/11/16 09:28:32;;;;;;;34.70;19.13;;;;;;;;;;4470011;32;20271;-86
2022/11/16 09:31:01;;;;;;;24.77;17.37;;;;;;;;;;4469737;32;20204;-86
2022/11/16 09:33:30;;;;;;;24.77;18.67;;;;;;;;;;4470168;32;20284;-86
2022/11/16 09:36:05;;;;;;;26.10;17.27;;;;;;;;;;4470174;32;20214;-89
2022/11/16 09:38:33;;;;;;;28.53;18.40;;;;;;;;;;4469250;32;20305;-86
2022/11/16 09:41:08;;;;;;;24.03;17.73;;;;;;;;;;4469529;32;20207;-88
2022/11/16 09:43:46;;;;;;;25.60;19.33;;;;;;;;;;4469275;32;20290;-87
2022/11/16 09:46:23;;;;;;;27.60;19.87;;;;;;;;;;4469188;32;20216;-88
2022/11/16 09:48:54;;;;;;;27.93;19.63;;;;;;;;;;4469828;32;20267;-87
2022/11/16 09:51:28;;;;;;;32.83;20.50;;;;;;;;;;4469034;32;20228;-87
2022/11/16 09:54:02;;;;;;;25.93;19.87;;;;;;;;;;4469655;32;20231;-88
2022/11/16 09:56:35;;;;;;;27.00;18.47;;;;;;;;;;4472292;32;20232;-88
2022/11/16 09:59:09;;;;;;;23.53;18.70;;;;;;;;;;4470131;32;20311;-87
2022/11/16 10:01:43;;;;;;;39.43;23.77;;;;;;;;;;4469642;32;20234;-86
2022/11/16 10:04:17;;;;;;;34.53;22.60;;;;;;;;;;4469347;32;20553;-86
2022/11/16 10:06:53;;;;;;;30.40;20.97;;;;;;;;;;4468931;32;20211;-86
2022/11/16 10:09:21;;;;;;;27.50;18.33;;;;;;;;;;4469292;32;20204;-86
2022/11/16 10:11:57;;;;;;;27.87;21.50;;;;;;;;;;4469326;32;20204;-87
2022/11/16 10:15:03;;;;;;;29.77;20.10;;;;;;;;;;4469769;32;20215;-86
2022/11/16 10:17:50;;;;;;;25.73;18.33;;;;;;;;;;4446177;32;20675;-86
2022/11/16 10:20:37;;;;;;;33.53;17.53;;;;;;;;;;4469753;32;20261;-86
2022/11/16 10:23:20;;;;;;;29.67;19.23;;;;;;;;;;4469767;32;20196;-86
2022/11/16 10:25:53;;;;;;;28.90;19.83;;;;;;;;;;4469375;32;20256;-88
2022/11/16 10:28:47;;;;;;;25.30;18.70;;;;;;;;;;4469663;32;20222;-88
2022/11/16 10:31:22;;;;;;;36.33;23.70;;;;;;;;;;4469205;32;20208;-87
2022/11/16 10:33:56;;;;;;;31.47;21.93;;;;;;;;;;4469032;32;20207;-88
2022/11/16 10:36:27;;;;;;;34.10;23.73;;;;;;;;;;4469402;32;20239;-86
2022/11/16 10:38:57;;;;;;;45.63;26.43;;;;;;;;;;4469817;32;20283;-86
2022/11/16 10:41:30;;;;;;;40.57;24.57;;;;;;;;;;4483141;32;20220;-85
2022/11/16 10:43:59;;;;;;;27.53;20.37;;;;;;;;;;4479155;32;20228;-87
2022/11/16 10:46:32;;;;;;;31.20;18.13;;;;;;;;;;4476272;32;20211;-87
2022/11/16 10:49:10;;;;;;;20.83;17.50;;;;;;;;;;4472872;32;20196;-87
2022/11/16 10:51:37;;;;;;;25.43;16.93;;;;;;;;;;4469781;32;20204;-87
2022/11/16 10:54:13;;;;;;;33.63;23.00;;;;;;;;;;4468499;32;20703;-87
2022/11/16 10:56:46;;;;;;;31.73;22.97;;;;;;;;;;4468685;32;20215;-86
2022/11/16 10:59:15;;;;;;;36.03;22.23;;;;;;;;;;4468788;32;20291;-87
2022/11/16 11:01:46;;;;;;;45.43;26.50;;;;;;;;;;4468313;32;20256;-88
2022/11/16 11:04:17;;;;;;;33.50;23.47;;;;;;;;;;4468897;32;20295;-87
2022/11/16 11:06:51;;;;;;;32.27;19.33;;;;;;;;;;4468791;32;20241;-86
2022/11/16 11:09:28;;;;;;;39.17;28.27;;;;;;;;;;4468507;32;20205;-87
2022/11/16 11:15:02;;;;;;;41.57;27.17;;;;;;;;;;4468439;32;20211;-87
2022/11/16 11:17:30;;;;;;;32.33;21.00;;;;;;;;;;4468458;32;20231;-87
2022/11/16 11:19:59;;;;;;;32.67;20.17;;;;;;;;;;4468739;32;20196;-86
2022/11/16 11:22:27;;;;;;;39.70;20.97;;;;;;;;;;4467847;32;20216;-87
2022/11/16 11:24:56;;;;;;;29.07;20.03;;;;;;;;;;4468054;32;20332;-87
2022/11/16 11:27:27;;;;;;;38.30;26.53;;;;;;;;;;4469067;32;20292;-87
2022/11/16 11:29:57;;;;;;;35.23;21.97;;;;;;;;;;4468873;32;20283;-86
2022/11/16 11:32:29;;;;;;;29.77;19.20;;;;;;;;;;4472331;32;20280;-87
2022/11/16 11:34:58;;;;;;;37.27;23.47;;;;;;;;;;4470168;32;20208;-87
2022/11/16 11:37:30;;;;;;;31.73;21.80;;;;;;;;;;4469337;32;20234;-87
2022/11/16 11:40:22;;;;;;;32.73;23.73;;;;;;;;;;4468251;32;20207;-85
2022/11/16 11:42:55;;;;;;;32.93;25.70;;;;;;;;;;4467633;32;20614;-85
2022/11/16 11:45:27;;;;;;;31.03;22.50;;;;;;;;;;4467101;32;20200;-86
2022/11/16 11:47:59;;;;;;;28.47;20.13;;;;;;;;;;4467741;32;20291;-88
2022/11/16 11:50:36;;;;;;;28.30;20.87;;;;;;;;;;4468414;32;20200;-88
2022/11/16 11:53:07;;;;;;;39.87;29.17;;;;;;;;;;4468045;32;20268;-85
2022/11/16 11:55:35;;;;;;;36.03;23.27;;;;;;;;;;4467863;32;20294;-86
2022/11/16 11:58:04;;;;;;;31.93;20.93;;;;;;;;;;4467728;32;20227;-86
2022/11/16 12:00:53;;;;;;;35.20;21.93;;;;;;;;;;4468236;32;20208;-88
2022/11/16 12:04:00;;;;;;;30.70;19.97;;;;;;;;;;4467714;32;20231;-86
2022/11/16 12:06:35;;;;;;;27.07;18.03;;;;;;;;;;4435879;32;20223;-87
2022/11/16 12:09:24;;;;;;;32.30;21.63;;;;;;;;;;4467433;32;20208;-87
2022/11/16 12:12:05;;;;;;;33.67;21.87;;;;;;;;;;4467734;32;20213;-87
2022/11/16 12:14:51;;;;;;;34.57;23.03;;;;;;;;;;4467933;32;20216;-86
2022/11/16 12:17:25;;;;;;;27.37;18.27;;;;;;;;;;4467496;32;20522;-85
2022/11/16 12:20:07;;;;;;;26.17;18.43;;;;;;;;;;4467953;32;20191;-86
2022/11/16 12:22:58;;;;;;;26.13;18.87;;;;;;;;;;4467637;32;20627;-86
2022/11/16 12:25:28;;;;;;;25.37;17.40;;;;;;;;;;4465623;32;20306;-87
2022/11/16 12:28:11;;;;;;;30.10;18.63;;;;;;;;;;4467834;32;20355;-86
2022/11/16 12:30:51;;;;;;;32.40;19.77;;;;;;;;;;4467888;32;20203;-86
2022/11/16 12:33:28;;;;;;;27.83;16.83;;;;;;;;;;4468079;32;20213;-87
2022/11/16 12:36:02;;;;;;;28.57;19.70;;;;;;;;;;4468672;32;20200;-87
2022/11/16 12:38:40;;;;;;;28.80;20.90;;;;;;;;;;4468644;32;20235;-86
2022/11/16 12:41:36;;;;;;;26.90;18.80;;;;;;;;;;4468535;32;20286;-86
2022/11/16 12:44:08;;;;;;;30.27;20.23;;;;;;;;;;4464475;32;20227;-86
2022/11/16 12:46:48;;;;;;;27.43;18.20;;;;;;;;;;4467926;32;20510;-86
2022/11/16 12:49:51;;;;;;;32.33;20.87;;;;;;;;;;4468153;32;20277;-86
2022/11/16 12:52:34;;;;;;;25.23;19.93;;;;;;;;;;4468585;32;20598;-87
2022/11/16 12:55:14;;;;;;;19.00;15.37;;;;;;;;;;4468177;32;20257;-87
2022/11/16 12:57:50;;;;;;;23.27;17.17;;;;;;;;;;4468016;32;20242;-88
2022/11/16 13:00:20;;;;;;;32.37;20.80;;;;;;;;;;4467360;32;20632;-86
2022/11/16 13:03:13;;;;;;;36.03;23.63;;;;;;;;;;4467786;32;20233;-87
2022/11/16 13:05:57;;;;;;;27.07;17.43;;;;;;;;;;4468360;32;20200;-86
2022/11/16 13:08:36;;;;;;;21.43;16.77;;;;;;;;;;4468051;32;20228;-87
2022/11/16 13:11:10;;;;;;;25.27;17.47;;;;;;;;;;4468438;32;20208;-87
2022/11/16 13:13:39;;;;;;;22.47;16.17;;;;;;;;;;4466849;32;20609;-87
2022/11/16 13:16:10;;;;;;;27.27;17.57;;;;;;;;;;4467757;32;20205;-87
2022/11/16 13:18:41;;;;;;;29.60;17.07;;;;;;;;;;4471061;32;20585;-86
2022/11/16 13:21:15;;;;;;;23.83;15.50;;;;;;;;;;4470948;32;20207;-86
2022/11/16 13:23:53;;;;;;;27.53;18.37;;;;;;;;;;4470940;32;20270;-86
2022/11/16 13:26:30;;;;;;;22.93;16.73;;;;;;;;;;4471087;32;20203;-86
2022/11/16 13:29:03;;;;;;;29.00;19.07;;;;;;;;;;4470889;32;20204;-86
2022/11/16 13:31:38;;;;;;;30.60;19.03;;;;;;;;;;4469842;32;20663;-87
2022/11/16 13:34:12;;;;;;;26.20;17.23;;;;;;;;;;4470487;32;20243;-86
2022/11/16 13:36:49;;;;;;;34.30;19.47;;;;;;;;;;4470799;32;20240;-86
2022/11/16 13:39:24;;;;;;;33.50;21.30;;;;;;;;;;4470765;32;20200;-86
2022/11/16 13:42:06;;;;;;;31.10;20.13;;;;;;;;;;4470553;32;20733;-86
2022/11/16 13:44:33;;;;;;;28.63;21.47;;;;;;;;;;4470745;32;20294;-86
2022/11/16 13:47:04;;;;;;;39.87;22.83;;;;;;;;;;4469946;32;20242;-86
2022/11/16 13:49:34;;;;;;;33.03;21.93;;;;;;;;;;4470020;32;20218;-86
2022/11/16 13:52:05;;;;;;;39.37;25.20;;;;;;;;;;4468896;32;20224;-86
2022/11/16 13:54:37;;;;;;;36.40;24.47;;;;;;;;;;4470393;32;20204;-88
2022/11/16 13:57:19;;;;;;;36.80;24.20;;;;;;;;;;4470179;32;20266;-85
2022/11/16 13:59:47;;;;;;;42.63;25.47;;;;;;;;;;4470270;32;20196;-86
2022/11/16 14:02:31;;;;;;;43.53;26.17;;;;;;;;;;4469992;32;20215;-85
2022/11/16 14:05:00;;;;;;;37.47;26.10;;;;;;;;;;4470698;32;20204;-86
2022/11/16 14:07:35;;;;;;;41.20;25.30;;;;;;;;;;4469768;32;20216;-86
2022/11/16 14:10:04;;;;;;;40.47;27.00;;;;;;;;;;4470435;32;20227;-85
2022/11/16 14:12:57;;;;;;;39.27;26.33;;;;;;;;;;4469531;32;20235;-86
2022/11/16 14:15:30;;;;;;;40.97;28.13;;;;;;;;;;4469726;32;20226;-85
2022/11/16 14:18:01;;;;;;;43.13;27.17;;;;;;;;;;4469715;32;20216;-86
2022/11/16 14:20:50;;;;;;;37.77;26.50;;;;;;;;;;4470190;32;20196;-85
2022/11/16 14:23:29;;;;;;;44.67;30.07;;;;;;;;;;4469245;32;20238;-86
2022/11/16 14:26:06;;;;;;;43.80;29.17;;;;;;;;;;4470059;32;20636;-86
2022/11/16 14:29:22;;;;;;;60.20;29.80;;;;;;;;;;4468163;32;20241;-86
2022/11/16 14:31:52;;;;;;;43.53;29.70;;;;;;;;;;4432742;32;20694;-86
2022/11/16 14:34:24;;;;;;;49.00;30.67;;;;;;;;;;4469540;32;20265;-86
2022/11/16 14:36:51;;;;;;;44.40;30.70;;;;;;;;;;4469553;32;20271;-86
2022/11/16 14:39:37;;;;;;;45.80;31.40;;;;;;;;;;4469201;32;20224;-86
2022/11/16 14:42:06;;;;;;;51.67;33.00;;;;;;;;;;4469518;32;20200;-86
2022/11/16 14:44:40;;;;;;;61.60;33.77;;;;;;;;;;4469110;32;20223;-86
2022/11/16 14:47:20;;;;;;;51.40;36.07;;;;;;;;;;4469954;32;20203;-86
2022/11/16 14:49:51;;;;;;;64.30;40.30;;;;;;;;;;4469216;32;20216;-85
2022/11/16 14:52:22;;;;;;;58.47;37.50;;;;;;;;;;4469447;32;20257;-85
2022/11/16 14:54:52;;;;;;;63.47;39.83;;;;;;;;;;4469148;32;20616;-85
2022/11/16 14:57:20;;;;;;;68.17;41.73;;;;;;;;;;4468149;32;20572;-86
2022/11/16 14:59:48;;;;;;;83.30;49.43;;;;;;;;;;4468985;32;20227;-85
2022/11/16 15:02:20;;;;;;;86.23;53.50;;;;;;;;;;4469399;32;20200;-85
2022/11/16 15:04:51;;;;;;;93.47;54.97;;;;;;;;;;4469019;32;20220;-86
2022/11/16 15:07:19;;;;;;;89.67;55.20;;;;;;;;;;4469210;32;20195;-86
2022/11/16 15:09:49;;;;;;;96.67;56.27;;;;;;;;;;4468916;32;20220;-86
2022/11/16 15:15:06;;;;;;;91.90;56.10;;;;;;;;;;4468781;32;20330;-88
2022/11/16 15:17:33;;;;;;;98.67;58.97;;;;;;;;;;4468128;32;20219;-86
2022/11/16 15:20:15;;;;;;;91.03;59.37;;;;;;;;;;4468701;32;20245;-85
2022/11/16 15:22:44;;;;;;;93.60;57.23;;;;;;;;;;4469370;32;20230;-86
2022/11/16 15:25:25;;;;;;;92.73;53.90;;;;;;;;;;4468867;32;20224;-86